Time;durP1;ratioP1;P1;durP2;ratioP2;P2;SDS_P1;SDS_P2;PMS_P1;PMS_P2;Temp;Humidity;BMP_temperature;BMP_pressure;BME280_temperature;BME280_humidity;BME280_pressure;Samples;Min_cycle;Max_cycle;Signal;HPM_P1;HPM_P2
2022/03/17 00:00:59;;;;;;;26.10;17.10;;;;;;;;;;5091433;28;20405;-66
2022/03/17 00:03:25;;;;;;;27.20;18.27;;;;;;;;;;5092103;28;20039;-66
2022/03/17 00:05:51;;;;;;;26.80;16.85;;;;;;;;;;5092796;28;20066;-66
2022/03/17 00:08:17;;;;;;;26.20;17.05;;;;;;;;;;5092749;28;20467;-66
2022/03/17 00:10:43;;;;;;;28.50;17.33;;;;;;;;;;5092108;28;20124;-66
2022/03/17 00:13:10;;;;;;;28.90;18.15;;;;;;;;;;5092073;28;20113;-66
2022/03/17 00:15:40;;;;;;;29.63;17.85;;;;;;;;;;5092621;28;20474;-66
2022/03/17 00:18:06;;;;;;;29.77;18.65;;;;;;;;;;5092057;28;20043;-66
2022/03/17 00:20:32;;;;;;;29.67;18.88;;;;;;;;;;5092295;28;20043;-66
2022/03/17 00:22:59;;;;;;;29.35;18.52;;;;;;;;;;5092484;28;20039;-66
2022/03/17 00:25:25;;;;;;;29.30;18.50;;;;;;;;;;5090333;28;20044;-66
2022/03/17 00:27:52;;;;;;;27.17;17.73;;;;;;;;;;5071137;28;20044;-66
2022/03/17 00:30:18;;;;;;;31.60;19.48;;;;;;;;;;5071835;28;20084;-66
2022/03/17 00:32:44;;;;;;;28.02;19.13;;;;;;;;;;5071835;28;20088;-66
2022/03/17 00:37:56;;;;;;;28.63;18.67;;;;;;;;;;5071994;28;20037;-66
2022/03/17 00:40:23;;;;;;;31.10;18.73;;;;;;;;;;5071339;28;20568;-66
2022/03/17 00:42:51;;;;;;;34.60;19.92;;;;;;;;;;5070411;28;20048;-66
2022/03/17 00:45:17;;;;;;;33.83;19.90;;;;;;;;;;5071969;28;20521;-66
2022/03/17 00:47:43;;;;;;;31.95;19.15;;;;;;;;;;5071419;28;20044;-66
2022/03/17 00:50:10;;;;;;;31.42;19.25;;;;;;;;;;5070514;28;20052;-66
2022/03/17 00:52:36;;;;;;;33.65;19.08;;;;;;;;;;5071607;28;20036;-66
2022/03/17 00:55:05;;;;;;;31.75;19.13;;;;;;;;;;5071780;28;20068;-66
2022/03/17 00:57:32;;;;;;;31.80;19.52;;;;;;;;;;5071273;28;20079;-66
2022/03/17 00:59:58;;;;;;;30.30;19.33;;;;;;;;;;5071687;28;20048;-66
2022/03/17 01:02:24;;;;;;;31.92;19.65;;;;;;;;;;5071629;28;20123;-66
2022/03/17 01:04:50;;;;;;;29.73;19.08;;;;;;;;;;5070961;28;20033;-66
2022/03/17 01:07:16;;;;;;;32.00;19.02;;;;;;;;;;5071591;28;20064;-66
2022/03/17 01:09:42;;;;;;;30.77;19.33;;;;;;;;;;5071611;28;20060;-66
2022/03/17 01:12:08;;;;;;;33.33;19.13;;;;;;;;;;5070934;28;20352;-66
2022/03/17 01:14:34;;;;;;;36.92;21.02;;;;;;;;;;5071445;28;20562;-66
2022/03/17 01:17:00;;;;;;;30.40;19.25;;;;;;;;;;5071379;28;20086;-66
2022/03/17 01:19:27;;;;;;;34.83;20.10;;;;;;;;;;5070922;28;20071;-66
2022/03/17 01:21:53;;;;;;;34.42;19.92;;;;;;;;;;5071371;28;20040;-66
2022/03/17 01:24:20;;;;;;;32.30;19.95;;;;;;;;;;5071469;28;20047;-66
2022/03/17 01:26:46;;;;;;;30.73;19.95;;;;;;;;;;5084039;28;20055;-66
2022/03/17 01:29:13;;;;;;;30.42;19.70;;;;;;;;;;5091561;28;20040;-66
2022/03/17 01:31:39;;;;;;;32.05;19.63;;;;;;;;;;5091135;28;20063;-66
2022/03/17 01:34:05;;;;;;;35.75;20.25;;;;;;;;;;5089438;28;20051;-66
2022/03/17 01:36:31;;;;;;;29.60;19.55;;;;;;;;;;5091492;28;20562;-66
2022/03/17 01:38:57;;;;;;;35.55;20.98;;;;;;;;;;5091674;28;20040;-66
2022/03/17 01:41:24;;;;;;;35.22;21.23;;;;;;;;;;5090887;28;20048;-66
2022/03/17 01:43:50;;;;;;;30.67;20.15;;;;;;;;;;5091311;28;20044;-66
2022/03/17 01:46:16;;;;;;;32.40;19.85;;;;;;;;;;5090983;28;20047;-66
2022/03/17 01:48:43;;;;;;;29.95;19.35;;;;;;;;;;5090754;28;20054;-66
2022/03/17 01:51:09;;;;;;;31.63;19.80;;;;;;;;;;5091403;28;20374;-66
2022/03/17 01:53:36;;;;;;;31.98;19.88;;;;;;;;;;5091281;28;20561;-66
2022/03/17 01:56:03;;;;;;;33.47;20.00;;;;;;;;;;5090410;28;20040;-66
2022/03/17 01:58:29;;;;;;;32.15;21.00;;;;;;;;;;5092456;28;20043;-66
2022/03/17 02:00:55;;;;;;;30.42;19.58;;;;;;;;;;5095290;28;20118;-66
2022/03/17 02:03:21;;;;;;;34.45;21.95;;;;;;;;;;5094475;28;20474;-66
2022/03/17 02:05:47;;;;;;;30.75;20.38;;;;;;;;;;5095126;28;20063;-66
2022/03/17 02:08:16;;;;;;;34.20;21.15;;;;;;;;;;5094921;28;20036;-66
2022/03/17 02:13:27;;;;;;;33.17;21.17;;;;;;;;;;5094854;28;20398;-66
2022/03/17 02:15:54;;;;;;;34.08;21.08;;;;;;;;;;5094882;28;20044;-66
2022/03/17 02:18:21;;;;;;;34.30;20.55;;;;;;;;;;5094128;28;20036;-66
2022/03/17 02:20:47;;;;;;;31.90;20.63;;;;;;;;;;5094773;28;20544;-66
2022/03/17 02:25:59;;;;;;;31.70;20.38;;;;;;;;;;5087150;28;20411;-66
2022/03/17 02:28:26;;;;;;;31.52;20.75;;;;;;;;;;5074419;28;20367;-66
2022/03/17 02:30:53;;;;;;;32.72;20.63;;;;;;;;;;5074073;28;20147;-66
2022/03/17 02:33:19;;;;;;;30.40;20.88;;;;;;;;;;5073337;28;20048;-66
2022/03/17 02:35:47;;;;;;;32.10;21.10;;;;;;;;;;5073953;28;20033;-66
2022/03/17 02:38:14;;;;;;;30.20;20.55;;;;;;;;;;5074390;28;20041;-66
2022/03/17 02:40:40;;;;;;;29.60;20.05;;;;;;;;;;5073397;28;20071;-66
2022/03/17 02:43:07;;;;;;;31.10;21.27;;;;;;;;;;5074165;28;20043;-66
2022/03/17 02:45:34;;;;;;;31.92;21.20;;;;;;;;;;5073734;28;20051;-65
2022/03/17 02:48:00;;;;;;;36.50;21.45;;;;;;;;;;5073494;28;20089;-65
2022/03/17 02:50:26;;;;;;;31.35;20.95;;;;;;;;;;5074041;28;20040;-66
2022/03/17 02:52:52;;;;;;;30.25;21.45;;;;;;;;;;5073591;28;20048;-66
2022/03/17 02:55:18;;;;;;;33.10;21.98;;;;;;;;;;5073447;28;20032;-66
2022/03/17 02:57:45;;;;;;;33.58;21.85;;;;;;;;;;5074026;28;20395;-66
2022/03/17 03:00:12;;;;;;;32.85;21.15;;;;;;;;;;5073857;28;20512;-66
2022/03/17 03:02:38;;;;;;;33.08;21.08;;;;;;;;;;5073224;28;20178;-66
2022/03/17 03:05:05;;;;;;;33.42;21.58;;;;;;;;;;5073809;28;20059;-66
2022/03/17 03:07:31;;;;;;;35.88;21.83;;;;;;;;;;5073865;28;20506;-66
2022/03/17 03:09:57;;;;;;;33.80;21.42;;;;;;;;;;5071893;28;20040;-66
2022/03/17 03:12:23;;;;;;;30.98;21.10;;;;;;;;;;5073717;28;20032;-66
2022/03/17 03:14:49;;;;;;;38.08;21.65;;;;;;;;;;5073681;28;20033;-66
2022/03/17 03:17:15;;;;;;;32.30;22.30;;;;;;;;;;5072868;28;20459;-66
2022/03/17 03:19:42;;;;;;;37.13;22.80;;;;;;;;;;5073349;28;20051;-66
2022/03/17 03:22:08;;;;;;;29.45;21.35;;;;;;;;;;5073589;28;20047;-66
2022/03/17 03:24:36;;;;;;;34.30;22.45;;;;;;;;;;5072749;28;20043;-66
2022/03/17 03:27:02;;;;;;;32.95;21.88;;;;;;;;;;5087286;28;20055;-66
2022/03/17 03:29:29;;;;;;;34.88;23.10;;;;;;;;;;5093722;28;20079;-66
2022/03/17 03:31:56;;;;;;;37.25;22.45;;;;;;;;;;5092240;28;20520;-66
2022/03/17 03:34:23;;;;;;;33.72;21.95;;;;;;;;;;5093171;28;20138;-66
2022/03/17 03:39:35;;;;;;;34.03;22.75;;;;;;;;;;5092718;28;20417;-66
2022/03/17 03:42:02;;;;;;;34.17;23.83;;;;;;;;;;5093321;28;20051;-66
2022/03/17 03:44:28;;;;;;;35.03;22.85;;;;;;;;;;5093323;28;20085;-66
2022/03/17 03:46:54;;;;;;;38.10;23.35;;;;;;;;;;5092344;28;20068;-66
2022/03/17 03:49:21;;;;;;;32.33;22.83;;;;;;;;;;5093174;28;20043;-66
2022/03/17 03:51:47;;;;;;;33.75;22.35;;;;;;;;;;5093159;28;20123;-66
2022/03/17 03:54:14;;;;;;;32.60;23.75;;;;;;;;;;5092187;28;20048;-66
2022/03/17 03:56:40;;;;;;;34.55;22.90;;;;;;;;;;5092904;28;20046;-66
2022/03/17 03:59:22;;;;;;;37.17;24.55;;;;;;;;;;5093010;28;20043;-66
2022/03/17 04:01:49;;;;;;;35.97;23.25;;;;;;;;;;5091994;28;20036;-66
2022/03/17 04:04:19;;;;;;;38.90;24.80;;;;;;;;;;5092851;28;20529;-66
2022/03/17 04:06:46;;;;;;;35.03;23.77;;;;;;;;;;5092451;28;20548;-66
2022/03/17 04:09:13;;;;;;;37.20;24.23;;;;;;;;;;5091932;28;20048;-66
2022/03/17 04:11:39;;;;;;;41.08;26.48;;;;;;;;;;5092631;28;20036;-66
2022/03/17 04:14:06;;;;;;;41.63;27.40;;;;;;;;;;5092600;28;20043;-66
2022/03/17 04:16:32;;;;;;;42.78;27.73;;;;;;;;;;5091760;28;20482;-66
2022/03/17 04:18:58;;;;;;;41.40;28.45;;;;;;;;;;5092155;28;20036;-66
2022/03/17 04:21:24;;;;;;;44.67;28.52;;;;;;;;;;5092250;28;20576;-66
2022/03/17 04:23:50;;;;;;;43.90;27.88;;;;;;;;;;5091453;28;20075;-66
2022/03/17 04:26:16;;;;;;;47.95;29.88;;;;;;;;;;5083036;28;20040;-66
2022/03/17 04:28:43;;;;;;;45.10;27.33;;;;;;;;;;5071822;28;20040;-66
2022/03/17 04:31:09;;;;;;;46.58;29.75;;;;;;;;;;5071258;28;20495;-66
2022/03/17 04:33:35;;;;;;;47.25;29.67;;;;;;;;;;5071959;28;20055;-66
2022/03/17 04:36:05;;;;;;;47.40;28.58;;;;;;;;;;5071955;28;20033;-66
2022/03/17 04:38:32;;;;;;;49.97;31.23;;;;;;;;;;5071490;28;20119;-66
2022/03/17 04:40:58;;;;;;;52.00;32.47;;;;;;;;;;5072104;28;20398;-66
2022/03/17 04:43:24;;;;;;;51.35;32.65;;;;;;;;;;5071989;28;20074;-66
2022/03/17 04:45:50;;;;;;;55.00;33.70;;;;;;;;;;5069894;28;20139;-66
2022/03/17 04:48:16;;;;;;;54.70;33.28;;;;;;;;;;5071314;28;20048;-65
2022/03/17 04:50:42;;;;;;;59.35;34.00;;;;;;;;;;5071914;28;20036;-65
2022/03/17 04:53:27;;;;;;;56.05;34.38;;;;;;;;;;5070978;28;20131;-65
2022/03/17 04:56:14;;;;;;;57.45;33.88;;;;;;;;;;5071522;28;20036;-65
2022/03/17 04:58:41;;;;;;;58.08;32.85;;;;;;;;;;5071392;28;20051;-65
2022/03/17 05:01:07;;;;;;;58.85;33.70;;;;;;;;;;5070753;28;20127;-66
2022/03/17 05:03:34;;;;;;;62.40;35.47;;;;;;;;;;5071362;28;20048;-66
2022/03/17 05:06:00;;;;;;;59.38;34.70;;;;;;;;;;5071576;28;20044;-66
2022/03/17 05:08:27;;;;;;;52.45;31.42;;;;;;;;;;5071001;28;20123;-66
2022/03/17 05:10:53;;;;;;;45.42;26.55;;;;;;;;;;5071800;28;20432;-66
2022/03/17 05:13:20;;;;;;;32.53;19.38;;;;;;;;;;5071472;28;20052;-66
2022/03/17 05:15:47;;;;;;;16.10;10.32;;;;;;;;;;5070883;28;20041;-66
2022/03/17 05:18:13;;;;;;;12.13;8.10;;;;;;;;;;5071516;28;20045;-66
2022/03/17 05:20:43;;;;;;;13.45;8.02;;;;;;;;;;5071721;28;20041;-66
2022/03/17 05:23:10;;;;;;;10.93;6.90;;;;;;;;;;5070542;28;20058;-66
2022/03/17 05:25:38;;;;;;;10.20;7.03;;;;;;;;;;5073823;28;20044;-66
2022/03/17 05:28:04;;;;;;;11.88;5.85;;;;;;;;;;5091574;28;20040;-66
2022/03/17 05:30:31;;;;;;;8.45;5.88;;;;;;;;;;5090788;28;20059;-66
2022/03/17 05:32:57;;;;;;;9.77;6.68;;;;;;;;;;5091697;28;20044;-66
2022/03/17 05:35:23;;;;;;;8.40;6.18;;;;;;;;;;5094295;28;20070;-66
2022/03/17 05:37:50;;;;;;;11.98;7.22;;;;;;;;;;5094976;28;20546;-66
2022/03/17 05:40:17;;;;;;;10.43;7.03;;;;;;;;;;5095626;28;20040;-66
2022/03/17 05:42:47;;;;;;;9.70;8.05;;;;;;;;;;5095691;28;20032;-66
2022/03/17 05:45:15;;;;;;;15.00;8.55;;;;;;;;;;5094532;28;20494;-66
2022/03/17 05:47:47;;;;;;;11.73;8.48;;;;;;;;;;5095039;28;20118;-66
2022/03/17 05:50:14;;;;;;;13.70;8.20;;;;;;;;;;5095155;28;20044;-66
2022/03/17 05:52:44;;;;;;;14.90;8.20;;;;;;;;;;5094713;28;20089;-66
2022/03/17 05:55:11;;;;;;;13.18;8.00;;;;;;;;;;5095337;28;20035;-66
2022/03/17 05:57:38;;;;;;;18.15;8.50;;;;;;;;;;5095279;28;20024;-66
2022/03/17 06:00:05;;;;;;;17.70;9.50;;;;;;;;;;5094676;28;20051;-66
2022/03/17 06:02:31;;;;;;;13.30;8.95;;;;;;;;;;5095197;28;20458;-66
2022/03/17 06:04:57;;;;;;;16.00;8.18;;;;;;;;;;5095260;28;20032;-66
2022/03/17 06:07:23;;;;;;;16.85;8.52;;;;;;;;;;5094180;28;20532;-66
2022/03/17 06:09:49;;;;;;;16.83;8.65;;;;;;;;;;5095063;28;20370;-66
2022/03/17 06:12:15;;;;;;;18.00;8.75;;;;;;;;;;5094998;28;20119;-66
2022/03/17 06:14:42;;;;;;;15.85;8.88;;;;;;;;;;5094191;28;20047;-66
2022/03/17 06:17:12;;;;;;;16.13;8.82;;;;;;;;;;5094736;28;20036;-66
2022/03/17 06:19:38;;;;;;;14.52;8.05;;;;;;;;;;5094917;28;20040;-66
2022/03/17 06:22:05;;;;;;;12.93;7.80;;;;;;;;;;5094006;28;20420;-66
2022/03/17 06:24:31;;;;;;;21.08;8.77;;;;;;;;;;5093275;28;20055;-66
2022/03/17 06:26:57;;;;;;;17.15;7.35;;;;;;;;;;5079595;28;20040;-66
2022/03/17 06:29:23;;;;;;;16.85;7.30;;;;;;;;;;5073586;28;20040;-66
2022/03/17 06:31:49;;;;;;;23.33;7.78;;;;;;;;;;5074035;28;20060;-66
2022/03/17 06:34:15;;;;;;;19.45;7.43;;;;;;;;;;5074117;28;20129;-66
2022/03/17 06:36:41;;;;;;;17.13;6.20;;;;;;;;;;5073478;28;20047;-66
2022/03/17 06:39:07;;;;;;;11.07;5.95;;;;;;;;;;5074437;28;20039;-66
2022/03/17 06:41:33;;;;;;;17.85;6.35;;;;;;;;;;5074045;28;20044;-66
2022/03/17 06:43:59;;;;;;;14.38;5.82;;;;;;;;;;5073366;28;20123;-66
2022/03/17 06:46:25;;;;;;;14.35;5.32;;;;;;;;;;5073418;28;20612;-66
2022/03/17 06:48:51;;;;;;;15.52;6.05;;;;;;;;;;5086191;28;20122;-66
2022/03/17 06:51:17;;;;;;;15.52;5.13;;;;;;;;;;5092306;28;20047;-66
2022/03/17 06:53:43;;;;;;;17.00;6.07;;;;;;;;;;5093712;28;20469;-66
2022/03/17 06:56:09;;;;;;;14.60;5.50;;;;;;;;;;5093809;28;20111;-66
2022/03/17 06:58:35;;;;;;;16.17;4.68;;;;;;;;;;5093364;28;20040;-66
2022/03/17 07:01:01;;;;;;;13.70;3.78;;;;;;;;;;5093750;28;20064;-66
2022/03/17 07:03:27;;;;;;;11.73;3.35;;;;;;;;;;5093882;28;20487;-66
2022/03/17 07:05:53;;;;;;;11.45;3.42;;;;;;;;;;5093028;28;20152;-66
2022/03/17 07:08:19;;;;;;;11.15;3.13;;;;;;;;;;5092626;28;20055;-66
2022/03/17 07:10:45;;;;;;;7.53;2.83;;;;;;;;;;5092834;28;20047;-65
2022/03/17 07:13:13;;;;;;;12.25;3.00;;;;;;;;;;5092758;28;20405;-66
2022/03/17 07:15:39;;;;;;;13.05;2.45;;;;;;;;;;5093588;28;20046;-66
2022/03/17 07:18:05;;;;;;;9.20;2.50;;;;;;;;;;5092814;28;20479;-65
2022/03/17 07:20:31;;;;;;;9.18;2.30;;;;;;;;;;5087446;28;20068;-65
2022/03/17 07:22:57;;;;;;;10.40;2.47;;;;;;;;;;5093047;28;20525;-65
2022/03/17 07:25:24;;;;;;;10.48;2.20;;;;;;;;;;5090575;28;20075;-64
2022/03/17 07:27:50;;;;;;;11.50;1.92;;;;;;;;;;5083206;28;20036;-65
2022/03/17 07:30:20;;;;;;;6.15;1.92;;;;;;;;;;5092652;28;20094;-65
2022/03/17 07:32:48;;;;;;;9.27;2.00;;;;;;;;;;5085016;28;20080;-65
2022/03/17 07:35:14;;;;;;;9.45;1.80;;;;;;;;;;5089185;28;20040;-65
2022/03/17 07:37:41;;;;;;;18.00;2.63;;;;;;;;;;5087998;28;20075;-65
2022/03/17 07:40:08;;;;;;;8.15;1.88;;;;;;;;;;5091833;28;20040;-65
2022/03/17 07:42:34;;;;;;;7.80;2.17;;;;;;;;;;5089997;28;20059;-65
2022/03/17 07:45:00;;;;;;;7.22;1.60;;;;;;;;;;5091458;28;20040;-65
2022/03/17 07:47:26;;;;;;;9.07;1.88;;;;;;;;;;5082012;28;20036;-65
2022/03/17 07:49:52;;;;;;;6.00;1.80;;;;;;;;;;5078669;28;20101;-65
2022/03/17 07:52:18;;;;;;;8.82;1.35;;;;;;;;;;5077509;28;20041;-65
2022/03/17 07:54:48;;;;;;;7.28;1.45;;;;;;;;;;5080556;28;20044;-65
2022/03/17 07:57:14;;;;;;;9.48;1.90;;;;;;;;;;5078038;28;20067;-65
2022/03/17 07:59:41;;;;;;;9.23;1.48;;;;;;;;;;5089611;28;20044;-65
2022/03/17 08:02:07;;;;;;;11.07;2.22;;;;;;;;;;5090602;28;20035;-64
2022/03/17 08:04:34;;;;;;;7.50;1.75;;;;;;;;;;5088824;28;20048;-65
2022/03/17 08:07:01;;;;;;;10.52;1.83;;;;;;;;;;5070834;28;20886;-65
2022/03/17 08:09:30;;;;;;;16.30;1.67;;;;;;;;;;5089850;28;20121;-65
2022/03/17 08:11:56;;;;;;;7.93;1.65;;;;;;;;;;5091095;28;20094;-65
2022/03/17 08:14:22;;;;;;;12.00;2.03;;;;;;;;;;5091045;28;20044;-63
2022/03/17 08:16:48;;;;;;;12.02;2.22;;;;;;;;;;5079992;28;20043;-64
2022/03/17 08:19:15;;;;;;;12.25;1.55;;;;;;;;;;5091276;28;20381;-64
2022/03/17 08:21:41;;;;;;;16.95;1.50;;;;;;;;;;5080424;28;20040;-64
2022/03/17 08:24:08;;;;;;;15.27;2.28;;;;;;;;;;5073916;28;20043;-64
2022/03/17 08:26:35;;;;;;;20.65;3.10;;;;;;;;;;5084242;28;20043;-64
2022/03/17 08:29:01;;;;;;;16.25;2.03;;;;;;;;;;5083237;28;20043;-65
2022/03/17 08:31:28;;;;;;;12.57;2.30;;;;;;;;;;5090001;28;20060;-64
2022/03/17 08:33:56;;;;;;;17.70;2.63;;;;;;;;;;5082896;28;20098;-65
2022/03/17 08:36:25;;;;;;;11.05;2.00;;;;;;;;;;5084386;28;20115;-65
2022/03/17 08:38:54;;;;;;;16.15;1.88;;;;;;;;;;5087117;28;20036;-65
2022/03/17 08:41:21;;;;;;;13.98;1.65;;;;;;;;;;5081420;28;20055;-64
2022/03/17 08:43:47;;;;;;;16.02;2.03;;;;;;;;;;5071308;28;20582;-64
2022/03/17 08:51:43;;;;;;;9.25;1.58;;;;;;;;;;5072235;28;20062;-64
2022/03/17 08:54:11;;;;;;;15.48;1.92;;;;;;;;;;5087049;28;20553;-65
2022/03/17 08:56:37;;;;;;;14.10;1.98;;;;;;;;;;5090059;28;20044;-65
2022/03/17 08:59:04;;;;;;;9.52;1.65;;;;;;;;;;5090064;28;20035;-64
2022/03/17 09:01:30;;;;;;;12.20;1.95;;;;;;;;;;5088068;28;20040;-63
2022/03/17 09:03:56;;;;;;;13.40;1.70;;;;;;;;;;5082870;28;20098;-65
2022/03/17 09:06:24;;;;;;;17.45;2.58;;;;;;;;;;5090206;28;20490;-65
2022/03/17 09:08:50;;;;;;;14.07;1.85;;;;;;;;;;5081039;28;20040;-64
2022/03/17 09:11:16;;;;;;;11.63;2.28;;;;;;;;;;5082064;28;20178;-65
2022/03/17 09:13:42;;;;;;;18.80;2.03;;;;;;;;;;5084217;28;20037;-64
2022/03/17 09:16:08;;;;;;;13.55;2.13;;;;;;;;;;5089140;28;20121;-66
2022/03/17 09:18:35;;;;;;;9.95;2.05;;;;;;;;;;5089160;28;20078;-65
2022/03/17 09:21:01;;;;;;;18.30;2.45;;;;;;;;;;5089973;28;20048;-66
2022/03/17 09:23:29;;;;;;;11.50;2.10;;;;;;;;;;5089370;28;20043;-65
2022/03/17 09:25:55;;;;;;;11.48;2.15;;;;;;;;;;5089079;28;20040;-64
2022/03/17 09:28:22;;;;;;;13.00;1.50;;;;;;;;;;5089498;28;20071;-65
2022/03/17 09:30:48;;;;;;;14.93;1.80;;;;;;;;;;5090307;28;20060;-65
2022/03/17 09:33:15;;;;;;;11.40;1.90;;;;;;;;;;5089433;28;20044;-65
2022/03/17 09:35:41;;;;;;;9.38;1.77;;;;;;;;;;5071652;28;20102;-65
2022/03/17 09:38:07;;;;;;;12.43;2.17;;;;;;;;;;5087607;28;20451;-66
2022/03/17 09:40:36;;;;;;;9.48;1.63;;;;;;;;;;5090220;28;20062;-65
2022/03/17 09:43:19;;;;;;;10.63;2.03;;;;;;;;;;5090439;28;20425;-65
2022/03/17 09:45:46;;;;;;;9.00;1.98;;;;;;;;;;5088958;28;20051;-66
2022/03/17 09:48:14;;;;;;;13.75;1.80;;;;;;;;;;5089284;28;20036;-66
2022/03/17 09:50:40;;;;;;;7.32;2.00;;;;;;;;;;5081832;28;20082;-65
2022/03/17 09:53:07;;;;;;;14.30;2.20;;;;;;;;;;5089804;28;20565;-65
2022/03/17 09:55:34;;;;;;;17.60;2.08;;;;;;;;;;5089148;28;20371;-65
2022/03/17 09:58:02;;;;;;;12.55;1.60;;;;;;;;;;5086134;28;20597;-64
2022/03/17 10:00:47;;;;;;;11.57;1.75;;;;;;;;;;5086242;28;20101;-65
2022/03/17 10:03:13;;;;;;;13.00;1.98;;;;;;;;;;5082942;28;20055;-65
2022/03/17 10:05:39;;;;;;;16.73;2.08;;;;;;;;;;5076752;28;20698;-65
2022/03/17 10:08:06;;;;;;;14.13;2.30;;;;;;;;;;5079795;28;20474;-65
2022/03/17 10:10:38;;;;;;;9.43;1.75;;;;;;;;;;5071061;28;20056;-64
2022/03/17 10:13:10;;;;;;;16.02;2.28;;;;;;;;;;5077268;28;20677;-65
2022/03/17 10:15:36;;;;;;;;;;;;;;;;;;5072594;28;20032;-65
2022/03/17 10:18:17;;;;;;;11.63;2.20;;;;;;;;;;5085428;28;19920;-65
2022/03/17 10:20:43;;;;;;;17.33;1.90;;;;;;;;;;5088485;28;20043;-64
2022/03/17 10:23:10;;;;;;;10.40;1.60;;;;;;;;;;5086203;28;20790;-65
2022/03/17 10:25:37;;;;;;;8.98;1.75;;;;;;;;;;5090946;28;20497;-64
2022/03/17 10:28:04;;;;;;;6.85;1.38;;;;;;;;;;5093670;28;20040;-64
2022/03/17 10:30:33;;;;;;;8.60;1.83;;;;;;;;;;5091773;28;20052;-64
2022/03/17 10:33:01;;;;;;;10.80;1.70;;;;;;;;;;5092506;28;20044;-65
2022/03/17 10:35:29;;;;;;;11.02;1.50;;;;;;;;;;5080568;28;20428;-64
2022/03/17 10:37:55;;;;;;;10.35;1.70;;;;;;;;;;5082709;28;20075;-65
2022/03/17 10:40:29;;;;;;;14.32;1.83;;;;;;;;;;5088588;28;20078;-64
2022/03/17 10:43:13;;;;;;;12.98;1.60;;;;;;;;;;5092863;28;20517;-65
2022/03/17 10:45:39;;;;;;;8.57;1.52;;;;;;;;;;5081040;28;20040;-64
2022/03/17 10:48:06;;;;;;;7.13;1.42;;;;;;;;;;5092147;28;20080;-66
2022/03/17 10:50:38;;;;;;;10.93;1.67;;;;;;;;;;5087556;28;20045;-66
2022/03/17 10:53:07;;;;;;;10.60;2.05;;;;;;;;;;5072498;28;20064;-64
2022/03/17 10:55:35;;;;;;;11.10;1.52;;;;;;;;;;5091352;28;20028;-65
2022/03/17 10:58:20;;;;;;;14.65;2.10;;;;;;;;;;5089790;28;20033;-65
2022/03/17 11:00:48;;;;;;;9.23;1.60;;;;;;;;;;5080124;28;20520;-63
2022/03/17 11:03:14;;;;;;;10.52;1.63;;;;;;;;;;5092494;28;20048;-63
2022/03/17 11:05:40;;;;;;;8.32;1.60;;;;;;;;;;5078441;28;20040;-63
2022/03/17 11:08:09;;;;;;;10.75;1.92;;;;;;;;;;5087341;28;20082;-63
2022/03/17 11:10:35;;;;;;;11.80;1.65;;;;;;;;;;5086578;28;20044;-63
2022/03/17 11:13:11;;;;;;;9.13;1.70;;;;;;;;;;5078492;28;20045;-65
2022/03/17 11:15:48;;;;;;;10.60;1.60;;;;;;;;;;5089032;28;20096;-64
2022/03/17 11:18:16;;;;;;;10.90;1.52;;;;;;;;;;5091959;28;20044;-63
2022/03/17 11:20:42;;;;;;;10.40;1.63;;;;;;;;;;5079850;28;20036;-65
2022/03/17 11:23:20;;;;;;;10.70;1.60;;;;;;;;;;5088478;28;20044;-64
2022/03/17 11:25:57;;;;;;;13.05;1.70;;;;;;;;;;5086394;28;20036;-64
2022/03/17 11:28:33;;;;;;;9.75;1.60;;;;;;;;;;5094016;28;20441;-64
2022/03/17 11:31:00;;;;;;;6.60;1.52;;;;;;;;;;5072312;28;20056;-64
2022/03/17 11:33:28;;;;;;;5.90;1.58;;;;;;;;;;5080058;28;20076;-62
2022/03/17 11:36:01;;;;;;;7.63;1.20;;;;;;;;;;5069855;28;20059;-63
2022/03/17 11:38:32;;;;;;;7.85;1.63;;;;;;;;;;5082784;28;20047;-63
2022/03/17 11:41:05;;;;;;;6.18;1.40;;;;;;;;;;5086821;28;20050;-64
2022/03/17 11:43:54;;;;;;;11.20;1.77;;;;;;;;;;5090726;28;20044;-64
2022/03/17 11:46:24;;;;;;;9.85;1.80;;;;;;;;;;5084090;28;20085;-64
2022/03/17 11:48:52;;;;;;;10.55;1.65;;;;;;;;;;5091161;28;20051;-66
2022/03/17 11:51:18;;;;;;;3.05;1.13;;;;;;;;;;5090942;28;20048;-66
2022/03/17 11:53:47;;;;;;;15.02;2.15;;;;;;;;;;5083295;28;20083;-64
2022/03/17 11:56:28;;;;;;;11.43;1.90;;;;;;;;;;5087010;28;20092;-64
2022/03/17 11:58:54;;;;;;;8.98;1.75;;;;;;;;;;5082151;28;20454;-64
2022/03/17 12:01:31;;;;;;;10.45;1.50;;;;;;;;;;5081596;28;20510;-64
2022/03/17 12:04:01;;;;;;;11.05;2.17;;;;;;;;;;5081308;28;20040;-64
2022/03/17 12:06:37;;;;;;;13.43;1.50;;;;;;;;;;5085613;28;20053;-64
2022/03/17 12:09:09;;;;;;;9.85;1.58;;;;;;;;;;5089520;28;20040;-64
2022/03/17 12:11:39;;;;;;;9.35;1.73;;;;;;;;;;5090637;28;20051;-65
2022/03/17 12:14:14;;;;;;;10.30;1.90;;;;;;;;;;5082279;28;20402;-65
2022/03/17 12:16:46;;;;;;;7.45;1.45;;;;;;;;;;5074033;28;20097;-64
2022/03/17 12:19:12;;;;;;;;;;;;;;;;;;5090698;28;20032;-64
2022/03/17 12:21:57;;;;;;;7.88;1.38;;;;;;;;;;5091317;28;19916;-65
2022/03/17 12:24:35;;;;;;;10.98;2.05;;;;;;;;;;5080901;28;20046;-64
2022/03/17 12:27:07;;;;;;;8.30;1.67;;;;;;;;;;5080982;28;20040;-64
2022/03/17 12:29:33;;;;;;;10.73;1.80;;;;;;;;;;5086453;28;20062;-65
2022/03/17 12:32:04;;;;;;;7.30;1.80;;;;;;;;;;5086848;28;20056;-65
2022/03/17 12:34:30;;;;;;;12.18;1.85;;;;;;;;;;5087418;28;20083;-65
2022/03/17 12:37:00;;;;;;;10.00;1.80;;;;;;;;;;5074006;28;20608;-64
2022/03/17 12:39:27;;;;;;;9.75;1.63;;;;;;;;;;5080038;28;20495;-63
2022/03/17 12:41:53;;;;;;;13.20;1.92;;;;;;;;;;5085656;28;20032;-65
2022/03/17 12:44:24;;;;;;;10.60;1.73;;;;;;;;;;5076688;28;20529;-64
2022/03/17 12:46:50;;;;;;;12.60;2.63;;;;;;;;;;5084566;28;20037;-64
2022/03/17 12:49:18;;;;;;;8.13;1.92;;;;;;;;;;5078912;28;20043;-64
2022/03/17 12:51:44;;;;;;;8.27;1.63;;;;;;;;;;5075529;28;20483;-64
2022/03/17 12:54:12;;;;;;;7.03;1.60;;;;;;;;;;5087624;28;20040;-65
2022/03/17 12:56:48;;;;;;;5.20;1.55;;;;;;;;;;5089841;28;20036;-64
2022/03/17 12:59:14;;;;;;;12.02;2.10;;;;;;;;;;5092151;28;20493;-64
2022/03/17 13:01:41;;;;;;;9.25;1.33;;;;;;;;;;5083086;28;20028;-65
2022/03/17 13:04:07;;;;;;;9.13;1.40;;;;;;;;;;5079499;28;20694;-64
2022/03/17 13:06:54;;;;;;;9.02;1.75;;;;;;;;;;5089465;28;20087;-64
2022/03/17 13:09:29;;;;;;;8.35;1.55;;;;;;;;;;5088403;28;20805;-64
2022/03/17 13:14:52;;;;;;;11.80;1.48;;;;;;;;;;5079885;28;20045;-66
2022/03/17 13:17:31;;;;;;;10.52;1.83;;;;;;;;;;5076036;28;20044;-65
2022/03/17 13:19:57;;;;;;;9.90;1.95;;;;;;;;;;5086239;28;20109;-66
2022/03/17 13:22:24;;;;;;;6.97;1.75;;;;;;;;;;5089146;28;20032;-65
2022/03/17 13:25:06;;;;;;;10.15;2.05;;;;;;;;;;5088777;28;20171;-65
2022/03/17 13:27:32;;;;;;;5.82;1.50;;;;;;;;;;5085762;28;20046;-65
2022/03/17 13:30:01;;;;;;;9.13;1.45;;;;;;;;;;5083806;28;20040;-66
2022/03/17 13:32:27;;;;;;;7.95;1.50;;;;;;;;;;5071072;28;20475;-68
2022/03/17 13:35:00;;;;;;;10.43;1.90;;;;;;;;;;5077510;28;20083;-68
2022/03/17 13:37:37;;;;;;;6.85;1.65;;;;;;;;;;5089095;28;20093;-68
2022/03/17 13:40:04;;;;;;;9.50;1.90;;;;;;;;;;5088056;28;20075;-67
2022/03/17 13:42:30;;;;;;;8.98;1.80;;;;;;;;;;5089475;28;20398;-68
2022/03/17 13:44:57;;;;;;;7.82;2.00;;;;;;;;;;5087844;28;20126;-68
2022/03/17 13:47:25;;;;;;;8.43;1.52;;;;;;;;;;5089399;28;20036;-68
2022/03/17 13:50:10;;;;;;;4.45;0.98;;;;;;;;;;5088625;28;20052;-70
2022/03/17 13:52:36;;;;;;;5.47;1.30;;;;;;;;;;5088100;28;20630;-68
2022/03/17 13:55:02;;;;;;;6.85;1.20;;;;;;;;;;5090723;28;20105;-67
2022/03/17 13:57:28;;;;;;;7.30;1.48;;;;;;;;;;5093806;28;20074;-67
2022/03/17 13:59:54;;;;;;;8.00;1.30;;;;;;;;;;5090214;28;20437;-66
2022/03/17 14:02:23;;;;;;;8.57;1.52;;;;;;;;;;5093893;28;20127;-66
2022/03/17 14:04:56;;;;;;;8.73;1.70;;;;;;;;;;5087144;28;20028;-66
2022/03/17 14:07:23;;;;;;;6.88;1.30;;;;;;;;;;5079657;28;20047;-68
2022/03/17 14:09:49;;;;;;;6.03;1.38;;;;;;;;;;5076376;28;20035;-68
2022/03/17 14:12:15;;;;;;;8.18;1.80;;;;;;;;;;5091568;28;20068;-68
2022/03/17 14:14:41;;;;;;;7.10;1.80;;;;;;;;;;5086556;28;20097;-68
2022/03/17 14:17:10;;;;;;;8.93;1.70;;;;;;;;;;5092396;28;20035;-67
2022/03/17 14:19:37;;;;;;;10.18;1.60;;;;;;;;;;5093652;28;20470;-68
2022/03/17 14:24:54;;;;;;;7.15;1.60;;;;;;;;;;5087132;28;20143;-68
2022/03/17 14:27:21;;;;;;;7.05;1.10;;;;;;;;;;5089231;28;20048;-68
2022/03/17 14:29:47;;;;;;;9.60;1.88;;;;;;;;;;5091529;28;20443;-68
2022/03/17 14:32:13;;;;;;;8.25;1.48;;;;;;;;;;5092888;28;20040;-68
2022/03/17 14:34:41;;;;;;;9.68;1.77;;;;;;;;;;5088271;28;20489;-68
2022/03/17 14:37:07;;;;;;;8.68;1.65;;;;;;;;;;5090748;28;20401;-68
2022/03/17 14:39:35;;;;;;;9.93;2.05;;;;;;;;;;5093126;28;20093;-68
2022/03/17 14:42:01;;;;;;;6.03;1.20;;;;;;;;;;5089809;28;20036;-67
2022/03/17 14:44:27;;;;;;;7.85;1.25;;;;;;;;;;5076950;28;20040;-68
2022/03/17 14:46:53;;;;;;;10.73;1.50;;;;;;;;;;5085767;28;20040;-69
2022/03/17 14:49:20;;;;;;;6.78;1.50;;;;;;;;;;5091807;28;20429;-68
2022/03/17 14:51:46;;;;;;;5.50;1.38;;;;;;;;;;5092789;28;20051;-68
2022/03/17 14:54:12;;;;;;;5.93;1.30;;;;;;;;;;5093038;28;20052;-68